createdAt,value
2022-08-20T00:04:55.208Z,4.22
2022-08-20T00:10:01.298Z,4.22
2022-08-20T00:15:08.810Z,4.95
2022-08-20T00:20:15.771Z,5.47
2022-08-20T00:25:21.820Z,4.53
2022-08-20T00:30:29.514Z,6.38
2022-08-20T00:35:38.933Z,5.28
2022-08-20T00:40:57.908Z,6.03
2022-08-20T00:46:08.849Z,7.30
2022-08-20T00:51:29.867Z,8.32
2022-08-20T00:56:36.950Z,8.45
2022-08-20T01:01:55.876Z,7.93
2022-08-20T01:07:02.706Z,7.78
2022-08-20T01:12:10.007Z,7.68
2022-08-20T01:17:20.852Z,7.97
2022-08-20T01:23:10.280Z,4.93
2022-08-20T01:28:19.870Z,4.90
2022-08-20T01:33:26.264Z,7.57
2022-08-20T01:38:32.916Z,4.10
2022-08-20T01:43:38.889Z,4.10
2022-08-20T01:48:46.321Z,6.15
2022-08-20T01:53:55.592Z,4.68
2022-08-20T01:59:04.892Z,5.07
2022-08-20T02:04:15.362Z,7.07
2022-08-20T02:09:21.852Z,5.32
2022-08-20T02:14:28.122Z,5.43
2022-08-20T02:19:35.354Z,5.95
2022-08-20T02:24:41.517Z,5.63
2022-08-20T02:29:48.290Z,5.75
2022-08-20T02:34:53.978Z,6.20
2022-08-20T02:40:02.694Z,6.10
2022-08-20T02:45:09.578Z,6.20
2022-08-20T02:50:22.851Z,7.05
2022-08-20T02:55:32.010Z,5.75
2022-08-20T03:00:40.857Z,6.45
2022-08-20T03:05:47.041Z,7.53
2022-08-20T03:10:54.168Z,10.57
2022-08-20T03:16:04.896Z,8.65
2022-08-20T03:21:14.679Z,14.63
2022-08-20T03:26:20.398Z,9.40
2022-08-20T03:31:26.275Z,12.98
2022-08-20T03:36:33.097Z,7.18
2022-08-20T03:41:40.178Z,10.38
2022-08-20T03:46:45.999Z,9.05
2022-08-20T03:51:56.317Z,21.95
2022-08-20T03:57:12.429Z,8.88
2022-08-20T04:02:18.738Z,7.90
2022-08-20T04:07:27.396Z,6.07
2022-08-20T04:12:33.673Z,8.63
2022-08-20T04:17:44.913Z,6.53
2022-08-20T04:22:58.503Z,11.35
2022-08-20T04:28:08.615Z,7.80
2022-08-20T04:33:14.263Z,7.13
2022-08-20T04:38:25.725Z,13.10
2022-08-20T04:43:51.755Z,5.95
2022-08-20T04:48:59.137Z,10.98
2022-08-20T04:54:05.455Z,22.55
2022-08-20T04:59:11.949Z,12.27
2022-08-20T05:04:18.013Z,17.02
2022-08-20T05:09:24.056Z,25.95
2022-08-20T05:14:31.194Z,16.55
2022-08-20T05:19:39.565Z,13.68
2022-08-20T05:24:45.171Z,18.55
2022-08-20T05:34:57.277Z,14.98
2022-08-20T05:40:03.143Z,20.02
2022-08-20T05:45:11.187Z,23.95
2022-08-20T05:50:20.723Z,22.80
2022-08-20T05:55:29.563Z,14.30
2022-08-20T06:00:36.433Z,16.40
2022-08-20T06:05:42.620Z,8.18
2022-08-20T06:10:48.904Z,29.67
2022-08-20T06:15:54.485Z,16.65
2022-08-20T06:21:01.034Z,17.05
2022-08-20T06:26:11.345Z,8.70
2022-08-20T06:31:16.868Z,14.15
2022-08-20T06:36:23.582Z,9.98
2022-08-20T06:41:36.074Z,13.95
2022-08-20T06:46:45.445Z,15.30
2022-08-20T06:51:52.018Z,13.35
2022-08-20T06:56:58.287Z,13.30
2022-08-20T07:07:22.170Z,14.18
2022-08-20T07:12:28.238Z,14.65
2022-08-20T07:17:34.036Z,13.65
2022-08-20T07:22:39.853Z,12.60
2022-08-20T07:27:46.872Z,9.00
2022-08-20T07:32:52.843Z,9.10
2022-08-20T07:37:58.718Z,6.63
2022-08-20T07:48:13.440Z,9.00
2022-08-20T07:53:39.021Z,9.98
2022-08-20T07:59:00.113Z,8.77
2022-08-20T08:04:06.662Z,8.05
2022-08-20T08:09:16.440Z,7.47
2022-08-20T08:14:28.197Z,7.57
2022-08-20T08:19:40.258Z,8.05
2022-08-20T08:24:57.235Z,7.15
2022-08-20T08:30:05.228Z,6.53
2022-08-20T08:35:12.583Z,6.97
2022-08-20T08:40:20.909Z,6.72
2022-08-20T08:45:47.752Z,5.70
2022-08-20T08:50:55.224Z,5.25
2022-08-20T08:56:02.075Z,6.80
2022-08-20T09:01:54.652Z,6.07
2022-08-20T09:12:23.372Z,7.75
2022-08-20T09:17:41.147Z,7.80
2022-08-20T09:22:47.296Z,5.80
2022-08-20T09:27:57.376Z,4.95
2022-08-20T09:33:04.572Z,5.70
2022-08-20T09:38:10.912Z,5.35
2022-08-20T09:43:16.999Z,5.50
2022-08-20T09:48:29.765Z,5.10
2022-08-20T09:53:38.302Z,4.25
2022-08-20T09:58:58.917Z,6.05
2022-08-20T10:04:08.014Z,5.97
2022-08-20T10:09:15.327Z,6.40
2022-08-20T10:14:21.579Z,5.60
2022-08-20T10:19:28.023Z,7.35
2022-08-20T10:24:34.615Z,8.35
2022-08-20T10:29:43.980Z,6.47
2022-08-20T10:34:52.637Z,6.05
2022-08-20T10:39:58.633Z,10.20
2022-08-20T10:45:04.697Z,10.95
2022-08-20T10:50:15.078Z,8.40
2022-08-20T10:55:21.422Z,11.57
2022-08-20T11:00:28.187Z,11.30
2022-08-20T11:05:35.261Z,8.68
2022-08-20T11:10:41.382Z,10.90
2022-08-20T11:15:48.092Z,8.73
2022-08-20T11:20:53.975Z,9.00
2022-08-20T11:26:00.189Z,10.48
2022-08-20T11:31:06.667Z,8.52
2022-08-20T11:41:18.137Z,9.88
2022-08-20T11:46:28.359Z,9.35
2022-08-20T11:51:39.114Z,10.73
2022-08-20T11:56:55.644Z,14.55
2022-08-20T12:07:19.640Z,14.65
2022-08-20T12:12:26.526Z,12.63
2022-08-20T12:17:34.503Z,11.05
2022-08-20T12:22:40.797Z,10.85
2022-08-20T12:27:46.639Z,9.88
2022-08-20T12:32:52.831Z,13.20
2022-08-20T12:37:58.587Z,11.60
2022-08-20T12:43:06.128Z,11.30
2022-08-20T12:48:14.924Z,13.45
2022-08-20T12:53:21.369Z,12.82
2022-08-20T12:58:27.561Z,15.00
2022-08-20T13:03:33.438Z,13.55
2022-08-20T13:08:48.991Z,15.50
2022-08-20T13:13:54.697Z,15.93
2022-08-20T13:24:06.048Z,15.55
2022-08-20T13:29:11.937Z,15.38
2022-08-20T13:34:18.067Z,14.02
2022-08-20T13:44:33.018Z,12.80
2022-08-20T13:49:38.999Z,13.10
2022-08-20T13:54:44.816Z,14.00
2022-08-20T13:59:54.352Z,14.38
2022-08-20T14:05:00.214Z,12.88
2022-08-20T14:10:18.406Z,13.73
2022-08-20T14:15:25.845Z,14.07
2022-08-20T14:20:34.901Z,12.30
2022-08-20T14:25:51.347Z,11.75
2022-08-20T14:30:57.140Z,12.43
2022-08-20T14:36:02.599Z,12.02
2022-08-20T14:41:08.498Z,10.88
2022-08-20T14:46:14.131Z,11.70
2022-08-20T14:56:25.680Z,10.90
2022-08-20T15:01:31.887Z,12.27
2022-08-20T15:06:37.964Z,13.52
2022-08-20T15:11:44.678Z,11.77
2022-08-20T15:16:50.671Z,11.60
2022-08-20T15:21:56.175Z,11.77
2022-08-20T15:27:01.655Z,10.27
2022-08-20T15:32:08.682Z,9.77
2022-08-20T15:37:21.312Z,11.52
2022-08-20T15:42:36.852Z,12.57
2022-08-20T15:48:03.676Z,12.60
2022-08-20T15:53:22.196Z,12.90
2022-08-20T15:58:48.963Z,12.55
2022-08-20T16:04:26.242Z,13.07
2022-08-20T16:10:15.789Z,11.75
2022-08-20T16:15:33.153Z,11.40
2022-08-20T16:20:44.572Z,12.60
2022-08-20T16:26:09.332Z,12.85
2022-08-20T16:31:20.583Z,12.52
2022-08-20T16:36:48.454Z,8.32
2022-08-20T16:42:12.255Z,8.55
2022-08-20T16:47:35.125Z,7.13
2022-08-20T16:52:46.093Z,7.47
2022-08-20T16:57:53.097Z,5.25
2022-08-20T17:03:08.559Z,6.55
2022-08-20T17:08:22.487Z,6.53
2022-08-20T17:13:38.669Z,6.35
2022-08-20T17:18:48.466Z,5.35
2022-08-20T17:23:58.276Z,4.60
2022-08-20T17:29:31.440Z,4.35
2022-08-20T17:34:50.573Z,4.28
2022-08-20T17:40:08.803Z,4.35
2022-08-20T17:45:44.591Z,3.83
2022-08-20T17:50:51.544Z,4.20
2022-08-20T17:56:03.760Z,5.00
2022-08-20T18:01:13.209Z,5.68
2022-08-20T18:06:35.890Z,6.90
2022-08-20T18:11:44.337Z,5.32
2022-08-20T18:17:25.784Z,5.20
2022-08-20T18:22:35.969Z,4.60
2022-08-20T18:27:53.054Z,4.88
2022-08-20T18:33:11.326Z,4.90
2022-08-20T18:38:26.489Z,5.32
2022-08-20T18:43:33.243Z,5.07
2022-08-20T18:48:39.244Z,4.57
2022-08-20T18:59:03.814Z,4.10
2022-08-20T19:04:39.861Z,4.28
2022-08-20T19:10:07.033Z,4.05
2022-08-20T19:15:18.613Z,3.83
2022-08-20T19:20:30.899Z,4.00
2022-08-20T19:25:40.481Z,3.97
2022-08-20T19:30:46.557Z,4.35
2022-08-20T19:35:52.581Z,4.40
2022-08-20T19:41:11.793Z,5.68
2022-08-20T19:46:32.298Z,9.30
2022-08-20T19:51:53.819Z,11.35
2022-08-20T19:57:05.739Z,16.38
2022-08-20T20:02:20.261Z,17.33
2022-08-20T20:12:37.059Z,23.85
2022-08-20T20:17:44.008Z,24.15
2022-08-20T20:23:04.323Z,7.78
2022-08-20T20:28:38.782Z,11.40
2022-08-20T20:33:45.979Z,10.18
2022-08-20T20:39:02.001Z,15.23
2022-08-20T20:49:37.688Z,17.52
2022-08-20T20:54:46.995Z,23.17
2022-08-20T20:59:54.609Z,23.25
2022-08-20T21:05:00.112Z,24.42
2022-08-20T21:15:11.962Z,17.30
2022-08-20T21:20:17.849Z,18.50
2022-08-20T21:30:29.637Z,16.45
2022-08-20T21:35:35.900Z,14.88
2022-08-20T21:40:41.410Z,15.65
2022-08-20T21:45:46.996Z,12.20
2022-08-20T21:50:55.387Z,12.75
2022-08-20T22:01:09.336Z,11.07
2022-08-20T22:06:16.386Z,8.27
2022-08-20T22:11:22.238Z,10.20
2022-08-20T22:16:28.430Z,10.65
2022-08-20T22:26:42.299Z,11.23
2022-08-20T22:31:48.217Z,9.90
2022-08-20T22:36:56.352Z,12.00
2022-08-20T22:42:01.924Z,10.23
2022-08-20T22:47:09.877Z,10.52
2022-08-20T22:52:16.235Z,9.13
2022-08-20T22:57:21.779Z,9.07
2022-08-20T23:02:27.644Z,8.20
2022-08-20T23:07:33.742Z,7.40
2022-08-20T23:12:40.137Z,7.68
2022-08-20T23:17:46.157Z,7.32
2022-08-20T23:22:51.700Z,6.47
2022-08-20T23:28:04.079Z,6.80
2022-08-20T23:33:10.358Z,7.22
2022-08-20T23:38:16.277Z,7.07
2022-08-20T23:43:21.731Z,7.20
2022-08-20T23:48:27.924Z,6.68
2022-08-20T23:53:34.188Z,8.55
2022-08-20T23:58:39.979Z,7.80
